createdAt,value
2022-09-05T00:02:02.289Z,77389.31
2022-09-05T00:04:47.602Z,77387.31
2022-09-05T00:07:58.011Z,77389.31
2022-09-05T00:10:23.707Z,77383.28
2022-09-05T00:13:06.847Z,77385.28
2022-09-05T00:15:37.416Z,77381.28
2022-09-05T00:24:17.162Z,77385.28
2022-09-05T00:24:27.648Z,77383.28
2022-09-05T00:24:35.702Z,77383.28
2022-09-05T00:26:50.607Z,77387.31
2022-09-05T00:31:08.222Z,77389.31
2022-09-05T00:32:26.448Z,77395.31
2022-09-05T00:35:13.176Z,77395.31
2022-09-05T00:37:39.573Z,77395.31
2022-09-05T00:40:27.457Z,77399.31
2022-09-05T00:42:55.933Z,77395.31
2022-09-05T00:45:27.434Z,77399.31
2022-09-05T00:48:20.000Z,77401.31
2022-09-05T00:50:55.370Z,77399.31
2022-09-05T00:53:39.190Z,77405.31
2022-09-05T00:56:24.035Z,77409.31
2022-09-05T00:59:09.904Z,77407.31
2022-09-05T01:01:36.339Z,77411.31
2022-09-05T01:04:05.777Z,77415.31
2022-09-05T01:06:44.154Z,77415.31
2022-09-05T01:09:19.839Z,77415.31
2022-09-05T01:12:01.458Z,77405.31
2022-09-05T01:14:46.792Z,77405.31
2022-09-05T01:17:13.180Z,77407.31
2022-09-05T01:19:51.985Z,77403.31
2022-09-05T01:22:38.229Z,77403.31
2022-09-05T01:25:23.490Z,77403.31
2022-09-05T01:29:17.249Z,77409.31
2022-09-05T01:31:08.671Z,77407.31
2022-09-05T01:33:54.183Z,77409.31
2022-09-05T01:36:30.212Z,77415.31
2022-09-05T01:40:11.950Z,77411.31
2022-09-05T01:42:08.360Z,77411.31
2022-09-05T01:44:55.355Z,77409.31
2022-09-05T01:47:30.803Z,77407.31
2022-09-05T01:50:06.682Z,77415.31
2022-09-05T01:52:57.778Z,77415.31
2022-09-05T01:56:02.518Z,77415.31
2022-09-05T01:58:40.840Z,77417.31
2022-09-05T02:01:25.434Z,77419.31
2022-09-05T02:04:04.563Z,77421.34
2022-09-05T02:06:44.098Z,77425.34
2022-09-05T02:09:28.855Z,77433.34
2022-09-05T02:12:02.336Z,77431.34
2022-09-05T02:14:37.931Z,77431.34
2022-09-05T02:17:25.848Z,77427.34
2022-09-05T02:20:01.988Z,77425.34
2022-09-05T02:22:34.111Z,77431.34
2022-09-05T02:25:30.154Z,77427.34
2022-09-05T02:28:05.482Z,77431.34
2022-09-05T02:30:38.551Z,77431.34
2022-09-05T02:33:15.779Z,77431.34
2022-09-05T02:35:45.948Z,77431.34
2022-09-05T02:40:21.966Z,77431.34
2022-09-05T02:45:03.377Z,77435.34
2022-09-05T02:45:06.153Z,77433.34
2022-09-05T02:47:00.981Z,77427.34
2022-09-05T02:51:09.615Z,77427.34
2022-09-05T02:57:25.188Z,77423.34
2022-09-05T02:57:42.661Z,77423.34
2022-09-05T02:58:59.312Z,77419.31
2022-09-05T03:01:40.023Z,77419.31
2022-09-05T03:04:18.299Z,77421.34
2022-09-05T03:06:50.743Z,77419.31
2022-09-05T03:09:40.402Z,77419.31
2022-09-05T03:12:18.988Z,77417.31
2022-09-05T03:15:22.256Z,77417.31
2022-09-05T03:18:21.151Z,77415.31
2022-09-05T03:20:51.309Z,77415.31
2022-09-05T03:23:38.652Z,77419.31
2022-09-05T03:26:23.056Z,77419.31
2022-09-05T03:29:01.362Z,77407.31
2022-09-05T03:31:46.783Z,77417.31
2022-09-05T03:34:16.199Z,77415.31
2022-09-05T03:37:01.140Z,77419.31
2022-09-05T03:39:42.620Z,77419.31
2022-09-05T03:42:14.702Z,77419.31
2022-09-05T03:44:44.411Z,77419.31
2022-09-05T03:47:29.702Z,77417.31
2022-09-05T03:53:49.672Z,77417.31
2022-09-05T03:57:16.805Z,77423.34
2022-09-05T03:57:25.814Z,77419.31
2022-09-05T03:59:35.921Z,77423.34
2022-09-05T04:07:12.035Z,77423.34
2022-09-05T04:08:25.311Z,77427.34
2022-09-05T04:08:34.208Z,77417.31
2022-09-05T04:11:01.581Z,77411.31
2022-09-05T04:13:48.303Z,77403.31
2022-09-05T04:16:30.521Z,77399.31
2022-09-05T04:19:08.465Z,77399.31
2022-09-05T04:21:36.739Z,77389.31
2022-09-05T04:24:03.175Z,77391.31
2022-09-05T04:26:41.755Z,77391.31
2022-09-05T04:29:15.169Z,77399.31
2022-09-05T04:32:18.396Z,77399.31
2022-09-05T04:34:45.604Z,77403.31
2022-09-05T04:37:47.869Z,77403.31
2022-09-05T04:40:34.338Z,77413.31
2022-09-05T04:43:05.791Z,77415.31
2022-09-05T04:45:35.450Z,77409.31
2022-09-05T04:48:02.934Z,77415.31
2022-09-05T04:50:37.787Z,77407.31
2022-09-05T04:53:20.176Z,77423.34
2022-09-05T04:55:50.690Z,77419.31
2022-09-05T04:58:43.644Z,77421.34
2022-09-05T05:05:59.772Z,77427.34
2022-09-05T05:06:11.396Z,77423.34
2022-09-05T05:07:16.820Z,77427.34
2022-09-05T05:10:05.896Z,77431.34
2022-09-05T05:17:55.746Z,77435.34
2022-09-05T05:18:12.356Z,77431.34
2022-09-05T05:18:56.521Z,77443.34
2022-09-05T05:21:30.407Z,77437.34
2022-09-05T05:23:58.956Z,77435.34
2022-09-05T05:26:32.147Z,77441.34
2022-09-05T05:28:58.500Z,77441.34
2022-09-05T05:31:28.630Z,77447.34
2022-09-05T05:33:58.231Z,77447.34
2022-09-05T05:36:39.682Z,77451.34
2022-09-05T05:39:21.110Z,77439.34
2022-09-05T05:41:50.232Z,77447.34
2022-09-05T05:44:19.278Z,77447.34
2022-09-05T05:46:58.205Z,77443.34
2022-09-05T05:49:27.534Z,77447.34
2022-09-05T05:52:05.431Z,77451.34
2022-09-05T05:54:45.769Z,77453.34
2022-09-05T05:57:32.988Z,77451.34
2022-09-05T06:00:04.314Z,77455.38
2022-09-05T06:03:25.541Z,77459.38
2022-09-05T06:05:54.967Z,77457.38
2022-09-05T06:12:46.325Z,77457.38
2022-09-05T06:14:49.156Z,77459.38
2022-09-05T06:15:10.658Z,77459.38
2022-09-05T06:17:47.795Z,77453.34
2022-09-05T06:22:06.468Z,77455.38
2022-09-05T06:23:40.309Z,77455.38
2022-09-05T06:26:25.430Z,77459.38
2022-09-05T06:28:52.490Z,77459.38
2022-09-05T06:31:30.763Z,77461.38
2022-09-05T06:34:27.962Z,77461.38
2022-09-05T06:37:07.555Z,77467.38
2022-09-05T06:39:53.391Z,77467.38
2022-09-05T06:42:42.530Z,77469.38
2022-09-05T06:45:28.986Z,77463.38
2022-09-05T06:48:17.121Z,77467.38
2022-09-05T06:51:07.840Z,77463.38
2022-09-05T06:53:43.504Z,77465.38
2022-09-05T06:56:09.929Z,77467.38
2022-09-05T06:58:39.119Z,77463.38
2022-09-05T07:01:08.587Z,77467.38
2022-09-05T07:03:52.264Z,77461.38
2022-09-05T07:07:01.008Z,77459.38
2022-09-05T07:09:35.251Z,77455.38
2022-09-05T07:12:17.589Z,77455.38
2022-09-05T07:15:11.540Z,77455.38
2022-09-05T07:18:08.506Z,77459.38
2022-09-05T07:21:15.806Z,77461.38
2022-09-05T07:24:06.312Z,77463.38
2022-09-05T07:26:51.498Z,77459.38
2022-09-05T07:29:19.691Z,77471.38
2022-09-05T07:31:55.039Z,77469.38
2022-09-05T07:34:24.796Z,77471.38
2022-09-05T07:37:13.879Z,77471.38
2022-09-05T07:39:43.457Z,77471.38
2022-09-05T07:42:14.860Z,77477.38
2022-09-05T07:44:47.144Z,77469.38
2022-09-05T07:47:20.896Z,77471.38
2022-09-05T07:50:27.950Z,77475.38
2022-09-05T07:56:50.274Z,77471.38
2022-09-05T07:57:02.082Z,77465.38
2022-09-05T07:58:20.332Z,77467.38
2022-09-05T08:00:51.850Z,77463.38
2022-09-05T08:03:24.045Z,77463.38
2022-09-05T08:05:54.199Z,77463.38
2022-09-05T08:08:23.076Z,77455.38
2022-09-05T08:11:24.434Z,77455.38
2022-09-05T08:13:46.427Z,77457.38
2022-09-05T08:16:16.698Z,77457.38
2022-09-05T08:18:45.167Z,77459.38
2022-09-05T08:21:42.028Z,77455.38
2022-09-05T08:24:24.695Z,77455.38
2022-09-05T08:27:02.061Z,77461.38
2022-09-05T08:29:37.021Z,77451.34
2022-09-05T08:32:11.916Z,77447.34
2022-09-05T08:34:44.478Z,77447.34
2022-09-05T08:37:20.818Z,77451.34
2022-09-05T08:39:57.554Z,77443.34
2022-09-05T08:44:14.940Z,77435.34
2022-09-05T08:46:41.094Z,77435.34
2022-09-05T08:48:40.460Z,77431.34
2022-09-05T08:51:12.681Z,77435.34
2022-09-05T08:53:48.368Z,77435.34
2022-09-05T08:56:21.398Z,77431.34
2022-09-05T08:59:27.520Z,77431.34
2022-09-05T09:02:46.905Z,77427.34
2022-09-05T09:05:23.880Z,77437.34
2022-09-05T09:08:16.510Z,77435.34
2022-09-05T09:10:48.759Z,77429.34
2022-09-05T09:13:27.508Z,77427.34
2022-09-05T09:15:53.976Z,77423.34
2022-09-05T09:18:21.471Z,77423.34
2022-09-05T09:20:53.735Z,77419.31
2022-09-05T09:23:38.802Z,77423.34
2022-09-05T09:26:11.180Z,77427.34
2022-09-05T09:28:51.396Z,77431.34
2022-09-05T09:31:37.682Z,77423.34
2022-09-05T09:34:06.880Z,77429.34
2022-09-05T09:36:51.906Z,77427.34
2022-09-05T09:39:38.282Z,77425.34
2022-09-05T09:42:33.753Z,77427.34
2022-09-05T09:45:27.809Z,77429.34
2022-09-05T09:48:01.738Z,77431.34
2022-09-05T09:50:34.236Z,77431.34
2022-09-05T09:53:05.224Z,77427.34
2022-09-05T09:55:41.082Z,77425.34
2022-09-05T09:58:29.389Z,77427.34
2022-09-05T10:01:20.163Z,77423.34
2022-09-05T10:10:34.568Z,77419.31
2022-09-05T10:10:45.730Z,77415.31
2022-09-05T10:10:53.558Z,77419.31
2022-09-05T10:12:53.230Z,77407.31
2022-09-05T10:15:52.509Z,77407.31
2022-09-05T10:18:18.900Z,77399.31
2022-09-05T10:21:16.348Z,77399.31
2022-09-05T10:23:46.770Z,77391.31
2022-09-05T10:26:16.352Z,77399.31
2022-09-05T10:29:11.852Z,77397.31
2022-09-05T10:35:09.427Z,77387.31
2022-09-05T10:35:17.316Z,77391.31
2022-09-05T10:37:44.370Z,77393.31
2022-09-05T10:40:12.648Z,77385.28
2022-09-05T10:43:00.776Z,77379.28
2022-09-05T10:45:33.318Z,77377.28
2022-09-05T10:48:23.390Z,77375.28
2022-09-05T10:50:54.762Z,77379.28
2022-09-05T10:53:39.014Z,77373.28
2022-09-05T10:56:19.616Z,77371.28
2022-09-05T11:01:31.030Z,77367.28
2022-09-05T11:02:28.150Z,77359.28
2022-09-05T11:04:51.087Z,77361.28
2022-09-05T11:07:36.314Z,77355.25
2022-09-05T11:10:22.993Z,77351.25
2022-09-05T11:13:00.117Z,77351.25
2022-09-05T11:15:32.415Z,77359.28
2022-09-05T11:18:04.783Z,77343.25
2022-09-05T11:20:34.907Z,77351.25
2022-09-05T11:23:04.828Z,77341.25
2022-09-05T11:25:36.181Z,77349.25
2022-09-05T11:28:13.654Z,77341.25
2022-09-05T11:30:43.680Z,77337.25
2022-09-05T11:36:56.500Z,77343.25
2022-09-05T11:39:54.774Z,77341.25
2022-09-05T11:40:06.456Z,77343.25
2022-09-05T11:41:55.434Z,77347.25
2022-09-05T11:44:26.459Z,77343.25
2022-09-05T11:47:29.930Z,77343.25
2022-09-05T11:50:05.835Z,77345.25
2022-09-05T11:52:44.732Z,77345.25
2022-09-05T11:55:21.093Z,77335.25
2022-09-05T11:57:47.977Z,77339.25
2022-09-05T12:00:32.567Z,77339.25
2022-09-05T12:03:03.451Z,77347.25
2022-09-05T12:05:59.283Z,77343.25
2022-09-05T12:08:39.680Z,77343.25
2022-09-05T12:11:21.617Z,77339.25
2022-09-05T12:14:01.009Z,77341.25
2022-09-05T12:17:00.391Z,77331.25
2022-09-05T12:19:30.703Z,77335.25
2022-09-05T12:22:09.620Z,77339.25
2022-09-05T12:25:26.190Z,77335.25
2022-09-05T12:29:27.934Z,77327.25
2022-09-05T12:31:58.841Z,77335.25
2022-09-05T12:36:06.057Z,77323.25
2022-09-05T12:40:55.848Z,77323.25
2022-09-05T12:40:59.268Z,77323.25
2022-09-05T12:42:55.999Z,77323.25
2022-09-05T12:45:37.140Z,77319.22
2022-09-05T12:48:22.419Z,77311.22
2022-09-05T12:50:57.022Z,77311.22
2022-09-05T12:53:24.893Z,77309.22
2022-09-05T12:56:47.962Z,77307.22
2022-09-05T13:03:06.706Z,77317.22
2022-09-05T13:03:14.118Z,77307.22
2022-09-05T13:04:30.854Z,77315.22
2022-09-05T13:07:01.126Z,77315.22
2022-09-05T13:11:39.237Z,77323.25
2022-09-05T13:14:53.613Z,77315.22
2022-09-05T13:15:38.489Z,77307.22
2022-09-05T13:18:15.914Z,77311.22
2022-09-05T13:20:51.555Z,77307.22
2022-09-05T13:23:37.280Z,77317.22
2022-09-05T13:26:32.499Z,77311.22
2022-09-05T13:29:10.596Z,77307.22
2022-09-05T13:38:00.764Z,77311.22
2022-09-05T13:38:07.905Z,77311.22
2022-09-05T13:38:12.202Z,77309.22
2022-09-05T13:40:22.988Z,77311.22
2022-09-05T13:43:18.739Z,77307.22
2022-09-05T13:46:04.980Z,77305.22
2022-09-05T13:51:45.654Z,77301.22
2022-09-05T13:54:16.397Z,77299.22
2022-09-05T13:56:48.553Z,77303.22
2022-09-05T13:59:16.211Z,77299.22
2022-09-05T14:02:23.813Z,77295.22
2022-09-05T14:05:17.810Z,77299.22
2022-09-05T14:07:50.160Z,77299.22
2022-09-05T14:10:52.059Z,77297.22
2022-09-05T14:13:18.582Z,77297.22
2022-09-05T14:16:08.232Z,77291.22
2022-09-05T14:19:02.267Z,77289.22
2022-09-05T14:21:30.608Z,77303.22
2022-09-05T14:24:05.622Z,77291.22
2022-09-05T14:26:35.955Z,77299.22
2022-09-05T14:29:20.366Z,77293.22
2022-09-05T14:37:35.381Z,77295.22
2022-09-05T14:37:43.659Z,77297.22
2022-09-05T14:38:09.444Z,77291.22
2022-09-05T14:40:58.594Z,77293.22
2022-09-05T14:43:37.666Z,77291.22
2022-09-05T14:46:21.118Z,77291.22
2022-09-05T14:48:55.210Z,77299.22
2022-09-05T14:51:28.770Z,77295.22
2022-09-05T14:54:04.944Z,77291.22
2022-09-05T14:59:04.232Z,77281.19
2022-09-05T15:02:50.349Z,77275.19
2022-09-05T15:03:02.227Z,77259.19
2022-09-05T15:05:40.005Z,77243.16
2022-09-05T15:08:20.318Z,77235.16
2022-09-05T15:12:16.830Z,77225.16
2022-09-05T15:13:51.805Z,77235.16
2022-09-05T15:16:20.253Z,77239.16
2022-09-05T15:18:47.139Z,77235.16
2022-09-05T15:21:17.824Z,77233.16
2022-09-05T15:24:03.890Z,77235.16
2022-09-05T15:26:31.469Z,77223.16
2022-09-05T15:29:27.442Z,77227.16
2022-09-05T15:32:10.786Z,77227.16
2022-09-05T15:34:38.562Z,77219.13
2022-09-05T15:37:22.056Z,77235.16
2022-09-05T15:39:59.496Z,77239.16
2022-09-05T15:42:28.147Z,77235.16
2022-09-05T15:45:09.815Z,77237.16
2022-09-05T15:47:39.512Z,77235.16
2022-09-05T15:50:21.370Z,77239.16
2022-09-05T15:52:53.550Z,77235.16
2022-09-05T15:55:23.756Z,77235.16
2022-09-05T15:57:51.870Z,77237.16
2022-09-05T16:00:30.429Z,77239.16
2022-09-05T16:03:23.111Z,77229.16
2022-09-05T16:10:27.742Z,77227.16
2022-09-05T16:10:59.084Z,77227.16
2022-09-05T16:14:23.697Z,77227.16
2022-09-05T16:23:11.732Z,77225.16
2022-09-05T16:23:21.114Z,77233.16
2022-09-05T16:23:24.938Z,77235.16
2022-09-05T16:25:38.869Z,77235.16
2022-09-05T16:28:06.534Z,77235.16
2022-09-05T16:30:37.298Z,77235.16
2022-09-05T16:33:06.150Z,77235.16
2022-09-05T16:35:35.983Z,77235.16
2022-09-05T16:38:12.782Z,77235.16
2022-09-05T16:40:44.911Z,77223.16
2022-09-05T16:43:16.349Z,77235.16
2022-09-05T16:45:54.969Z,77235.16
2022-09-05T16:48:27.426Z,77235.16
2022-09-05T16:51:08.620Z,77237.16
2022-09-05T16:53:58.709Z,77233.16
2022-09-05T16:56:36.978Z,77233.16
2022-09-05T16:59:08.938Z,77233.16
2022-09-05T17:02:06.428Z,77227.16
2022-09-05T17:04:42.694Z,77241.16
2022-09-05T17:07:58.613Z,77239.16
2022-09-05T17:10:31.280Z,77245.16
2022-09-05T17:12:57.721Z,77243.16
2022-09-05T17:15:35.511Z,77241.16
2022-09-05T17:18:22.112Z,77243.16
2022-09-05T17:20:53.317Z,77247.16
2022-09-05T17:29:18.782Z,77243.16
2022-09-05T17:29:37.838Z,77245.16
2022-09-05T17:30:32.183Z,77239.16
2022-09-05T17:32:00.209Z,77241.16
2022-09-05T17:34:36.839Z,77247.16
2022-09-05T17:37:11.797Z,77245.16
2022-09-05T17:39:55.131Z,77249.16
2022-09-05T17:42:48.085Z,77251.16
2022-09-05T17:45:37.583Z,77255.16
2022-09-05T17:48:04.639Z,77251.16
2022-09-05T17:50:33.201Z,77253.16
2022-09-05T17:53:25.860Z,77255.16
2022-09-05T17:55:49.334Z,77255.16
2022-09-05T17:58:26.007Z,77257.19
2022-09-05T18:01:28.841Z,77251.16
2022-09-05T18:04:09.758Z,77259.19
2022-09-05T18:06:51.065Z,77267.19
2022-09-05T18:09:48.227Z,77265.19
2022-09-05T18:12:45.721Z,77271.19
2022-09-05T18:15:38.202Z,77271.19
2022-09-05T18:18:31.280Z,77275.19
2022-09-05T18:21:21.467Z,77269.19
2022-09-05T18:23:54.432Z,77263.19
2022-09-05T18:26:23.276Z,77251.16
2022-09-05T18:29:15.075Z,77247.16
2022-09-05T18:31:43.531Z,77251.16
2022-09-05T18:34:14.598Z,77251.16
2022-09-05T18:36:45.034Z,77251.16
2022-09-05T18:39:24.359Z,77247.16
2022-09-05T18:41:54.068Z,77247.16
2022-09-05T18:44:21.252Z,77251.16
2022-09-05T18:46:49.816Z,77253.16
2022-09-05T18:50:25.252Z,77249.16
2022-09-05T18:52:24.614Z,77251.16
2022-09-05T18:56:09.172Z,77247.16
2022-09-05T18:57:45.143Z,77247.16
2022-09-05T19:00:13.911Z,77247.16
2022-09-05T19:02:54.172Z,77247.16
2022-09-05T19:05:38.179Z,77247.16
2022-09-05T19:08:13.479Z,77239.16
2022-09-05T19:10:59.493Z,77247.16
2022-09-05T19:13:44.610Z,77251.16
2022-09-05T19:16:43.629Z,77255.16
2022-09-05T19:19:16.266Z,77255.16
2022-09-05T19:21:45.971Z,77251.16
2022-09-05T19:24:14.123Z,77251.16
2022-09-05T19:26:40.826Z,77251.16
2022-09-05T19:36:56.640Z,77251.16
2022-09-05T19:37:04.778Z,77251.16
2022-09-05T19:37:05.617Z,77251.16
2022-09-05T19:37:47.625Z,77251.16
2022-09-05T19:47:25.473Z,77253.16
2022-09-05T19:47:35.917Z,77255.16
2022-09-05T19:47:55.729Z,77257.19
2022-09-05T19:49:11.854Z,77255.16
2022-09-05T19:51:41.088Z,77255.16
2022-09-05T19:54:08.216Z,77261.19
2022-09-05T19:56:39.635Z,77263.19
2022-09-05T19:59:17.067Z,77259.19
2022-09-05T20:01:44.420Z,77255.16
2022-09-05T20:04:16.380Z,77259.19
2022-09-05T20:06:42.879Z,77259.19
2022-09-05T20:09:14.172Z,77259.19
2022-09-05T20:11:45.715Z,77259.19
2022-09-05T20:14:23.834Z,77263.19
2022-09-05T20:16:52.427Z,77257.19
2022-09-05T20:19:23.475Z,77259.19
2022-09-05T20:21:57.038Z,77259.19
2022-09-05T20:24:24.185Z,77263.19
2022-09-05T20:26:50.815Z,77267.19
2022-09-05T20:29:26.352Z,77269.19
2022-09-05T20:32:12.760Z,77271.19
2022-09-05T20:37:47.488Z,77271.19
2022-09-05T20:43:17.663Z,77275.19
2022-09-05T20:43:21.191Z,77269.19
2022-09-05T20:43:26.647Z,77271.19
2022-09-05T20:46:05.252Z,77271.19
2022-09-05T20:54:13.078Z,77267.19
2022-09-05T20:54:15.606Z,77271.19
2022-09-05T20:54:34.634Z,77271.19
2022-09-05T20:57:12.357Z,77271.19
2022-09-05T20:59:41.486Z,77269.19
2022-09-05T21:02:18.697Z,77271.19
2022-09-05T21:04:53.710Z,77267.19
2022-09-05T21:07:25.265Z,77271.19
2022-09-05T21:10:02.648Z,77267.19
2022-09-05T21:12:30.700Z,77267.19
2022-09-05T21:15:35.439Z,77269.19
2022-09-05T21:18:15.054Z,77273.19
2022-09-05T21:20:41.450Z,77271.19
2022-09-05T21:23:27.069Z,77271.19
2022-09-05T21:25:55.078Z,77275.19
2022-09-05T21:28:36.479Z,77271.19
2022-09-05T21:31:06.358Z,77271.19
2022-09-05T21:33:45.021Z,77271.19
2022-09-05T21:36:14.499Z,77269.19
2022-09-05T21:38:41.809Z,77273.19
2022-09-05T21:41:08.327Z,77267.19
2022-09-05T21:47:33.203Z,77263.19
2022-09-05T21:47:46.516Z,77259.19
2022-09-05T21:49:14.193Z,77255.16
2022-09-05T21:51:40.570Z,77259.19
2022-09-05T21:59:16.075Z,77251.16
2022-09-05T21:59:27.216Z,77255.16
2022-09-05T21:59:55.557Z,77251.16
2022-09-05T22:02:23.175Z,77251.16
2022-09-05T22:04:54.070Z,77253.16
2022-09-05T22:07:31.913Z,77253.16
2022-09-05T22:09:59.436Z,77251.16
2022-09-05T22:12:35.722Z,77255.16
2022-09-05T22:15:26.783Z,77255.16
2022-09-05T22:17:50.941Z,77255.16
2022-09-05T22:20:18.862Z,77255.16
2022-09-05T22:22:45.326Z,77251.16
2022-09-05T22:25:28.639Z,77251.16
2022-09-05T22:27:59.785Z,77249.16
2022-09-05T22:30:27.086Z,77251.16
2022-09-05T22:32:53.615Z,77251.16
2022-09-05T22:35:28.410Z,77245.16
2022-09-05T22:38:02.982Z,77247.16
2022-09-05T22:40:31.665Z,77247.16
2022-09-05T22:42:59.547Z,77251.16
2022-09-05T22:45:26.455Z,77253.16
2022-09-05T22:47:53.585Z,77251.16
2022-09-05T22:50:20.333Z,77253.16
2022-09-05T22:52:47.099Z,77247.16
2022-09-05T22:55:13.559Z,77253.16
2022-09-05T22:57:40.130Z,77249.16
2022-09-05T23:00:07.517Z,77255.16
2022-09-05T23:02:35.171Z,77257.19
2022-09-05T23:05:05.130Z,77255.16
2022-09-05T23:07:32.721Z,77257.19
2022-09-05T23:09:59.499Z,77253.16
2022-09-05T23:12:25.937Z,77259.19
2022-09-05T23:14:52.533Z,77255.16
2022-09-05T23:17:18.914Z,77255.16
2022-09-05T23:19:45.425Z,77259.19
2022-09-05T23:22:11.879Z,77247.16
2022-09-05T23:24:38.342Z,77255.16
2022-09-05T23:27:04.782Z,77255.16
2022-09-05T23:29:31.229Z,77253.16
2022-09-05T23:31:57.665Z,77249.16
2022-09-05T23:34:25.574Z,77255.16
2022-09-05T23:36:52.030Z,77247.16
2022-09-05T23:39:18.457Z,77255.16
2022-09-05T23:41:45.015Z,77251.16
2022-09-05T23:44:11.974Z,77251.16
2022-09-05T23:46:40.384Z,77247.16
2022-09-05T23:49:07.136Z,77247.16
2022-09-05T23:51:33.601Z,77243.16
2022-09-05T23:53:59.984Z,77247.16
2022-09-05T23:56:26.414Z,77243.16
2022-09-05T23:58:52.846Z,77249.16
